Parsons Landing, Santa Catalina Island Weather observations

Data are for 10 minute period ending at time listed.
 Day   Time   Solar   Ave.   Ave.  Ave.  Vector    Max.   Stn.   Total 
  of    of     Rad.   Air    Rel.  Wind   Wind     Wind   Baro. Precip. 
Year   Day            Temp.  Hum.  Speed  Dir.     Gust   Pres.         
2014   (PST)   W/m2    F      %     mph   deg.      mph    mb.    in.   
------------------------------------------------------------------------
 205    6:40  201.0    72   81.2     2     17.0     4.2    999.0   0.00  
 205    6:50  227.0    72   80.9     3    348.8     4.2    999.0   0.00  
 205    7:00  255.0    71   82.1     3    330.6     5.4    999.0   0.00  
 205    7:10  282.0    71   83.1     4    325.4     6.6    999.0   0.00  
 205    7:20  309.0    71   83.4     4    342.4     6.0    999.0   0.00  
 205    7:30  337.0    72   82.1     4    350.4     5.4    999.0   0.00  
 205    7:40  364.0    72   81.6     4    350.5     5.4    999.0   0.00  
 205    7:50  389.0    72   81.1     5    334.5     6.6    999.0   0.00  
 205    8:00  416.0    72   81.6     5    337.0     7.8    999.0   0.00  
 205    8:10  442.0    72   81.6     6    339.1     7.8    999.0   0.00  
 205    8:20  467.0    72   80.9     6    343.6     8.4    999.0   0.00  
 205    8:30  491.0    72   81.0     6    343.6     8.4    999.0   0.00  
 205    8:40  516.0    73   80.6     5    357.7     6.6    999.0   0.00  
 205    8:50  541.0    74   79.2     4    357.8     6.0    999.0   0.00  
 205    9:00  564.0    74   77.6     5    340.7     7.8    999.0   0.00  
 205    9:10  585.0    74   77.6     4    345.0     6.6    999.0   0.00  
 205    9:20  606.0    74   77.4     5    345.8     7.2    999.0   0.00  
 205    9:30  627.0    74   77.8     4    342.2     6.6    999.0   0.00  
 205    9:40  647.0    74   77.6     4    341.5     6.6    999.0   0.00  
 205    9:50  665.0    75   76.9     5    350.0     7.8    999.0   0.00  
 205   10:00  682.0    75   75.7     6    343.7     8.4    999.0   0.00  
 205   10:10  698.0    74   78.0     6    344.1     9.0    999.0   0.00  
 205   10:20  713.0    74   77.3     8    335.7    10.2    999.0   0.00  
 205   10:30  728.0    74   76.2     6    347.9     7.8    999.0   0.00  
 205   10:40  741.0    76   74.7     6    344.7     9.6    999.0   0.00  
 205   10:50  753.0    76   73.7     6    342.1     8.4    999.0   0.00  
 205   11:00  763.0    78   72.4     5    359.5     7.8    999.0   0.00  
 205   11:10  772.0    78   71.6     6    347.5     9.6    999.0   0.00  
 205   11:20  778.0    78   71.8     6    356.5     9.0    999.0   0.00  
 205   11:30  783.0    78   70.9     6      3.1     9.6    999.0   0.00  
 205   11:40  787.0    78   70.8     6    350.8     8.4    999.0   0.00  
 205   11:50  790.0    79   69.8     5    357.7     9.0    999.0   0.00  
 205   12:00  793.0    79   68.8     5    353.0     7.8    999.0   0.00  
 205   12:10  795.0    80   67.3     6    355.0     9.0    999.0   0.00  
 205   12:20  794.0    80   66.1     5    355.8     8.4    999.0   0.00  
 205   12:30  792.0    81   65.6     6    355.5     8.4    999.0   0.00  
 205   12:40  789.0    81   64.4     6    354.6     9.0    999.0   0.00  
 205   12:50  783.0    81   64.4     7    346.1    10.8    999.0   0.00  
 205   13:00  776.0    81   63.6     8    337.0    11.9    999.0   0.00  
 205   13:10  768.0    80   65.8    10    331.5    13.7    999.0   0.00  
 205   13:20  760.0    80   65.0    10    325.9    14.9    999.0   0.00  
 205   13:30  749.0    81   62.7    10    326.8    13.7    999.0   0.00  
 205   13:40  737.0    81   62.0    10    329.5    13.7    999.0   0.00  
 205   13:50  724.0    81   61.9    10    326.0    14.3    999.0   0.00  
 205   14:00  710.0    80   62.8    10    327.3    14.3    999.0   0.00  
 205   14:10  695.0    80   64.7     9    319.4    13.7    999.0   0.00  
 205   14:20  679.0    81   61.2     7    336.8    10.8    999.0   0.00  
 205   14:30  661.0    84   54.7     9    325.5    12.5    999.0   0.00  
 205   14:40  641.0    82   56.4    10    326.6    12.5    999.0   0.00  
 205   14:50  621.0    83   55.0     8    333.7    13.1    999.0   0.00  
 205   15:00  602.0    84   50.7     8    325.2    13.1    999.0   0.00  
 205   15:10  581.0    86   48.1    10    316.0    14.3    999.0   0.00  
 205   15:20  557.0    86   48.9     9    309.0    14.9    999.0   0.00  
 205   15:30  532.0    84   49.8    10    311.8    16.1    999.0   0.00  
 205   15:40  508.0    83   52.5    10    305.2    16.1    999.0   0.00  
 205   15:50  483.0    83   50.4     9    308.9    14.9    999.0   0.00  
 205   16:00  458.0    84   50.0     8    308.4    13.1    999.0   0.00  
 205   16:10  433.0    85   46.2     7    304.2    11.3    999.0   0.00  
 205   16:20  406.0    86   46.6     8    309.1    11.9    999.0   0.00  
 205   16:30  380.0    85   46.8     9    295.9    13.7    999.0   0.00  
 205   16:40  353.0    85   46.4    11    313.3    16.1    999.0   0.00  
 205   16:50  325.0    84   47.3    11    310.3    16.7    999.0   0.00  
 205   17:00  296.0    84   47.9    11    304.7    17.9    999.0   0.00  
 205   17:10  268.0    83   48.5    10    304.6    16.7    999.0   0.00  
 205   17:20  240.0    82   50.7    10    307.4    16.7    999.0   0.00  
 205   17:30  211.0    80   54.0    12    307.2    16.7    999.0   0.00  
 205   17:40  184.0    79   54.6    11    303.7    16.7    999.0   0.00  
 205   17:50  157.0    79   54.2    10    299.3    15.5    999.0   0.00  
 205   18:00  132.0    79   54.1     8    301.6    15.5    999.0   0.00  
 205   18:10  107.0    78   54.5     9    297.6    14.9    999.0   0.00  
 205   18:20   83.0    78   55.5     9    298.7    16.7    999.0   0.00  
 205   18:30   56.0    78   56.9     8    305.8    11.3    999.0   0.00  
 205   18:40   19.0    76   60.0     6    308.9    10.2    999.0   0.00  
 205   18:50   10.0    74   62.4     2    282.5     3.6    999.0   0.00  
 205   19:00    6.0    74   64.6     2     81.4     4.2    999.0   0.00  
 205   19:10    2.0    72   66.7     4    103.8     5.4    999.0   0.00  
 205   19:20    0.0    72   69.2     4     93.4     5.4    999.0   0.00  
 205   19:30    0.0    71   71.1     3    109.5     4.8    999.0   0.00  
 205   19:40    0.0    71   71.6     3     75.0     3.6    999.0   0.00  
 205   19:50    0.0    70   72.4     4    119.7     5.4    999.0   0.00  
 205   20:00    0.0    71   72.1     5    102.8     6.0    999.0   0.00  
 205   20:10    0.0    70   73.5     5    119.4     6.0    999.0   0.00  
 205   20:20    0.0    70   74.6     6     96.3     8.4    999.0   0.00  
 205   20:30    0.0    70   76.5     5    112.6     7.2    999.0   0.00  
 205   20:40    0.0    69   77.2     3    113.6     5.4    999.0   0.00  
 205   20:50    0.0    69   78.1     2    139.2     3.6    999.0   0.00  
 205   21:00    0.0    69   78.1     2    117.6     4.2    999.0   0.00  
 205   21:10    0.0    68   79.0     3     85.1     4.2    999.0   0.00  
 205   21:20    0.0    68   79.4     1    186.6     3.0    999.0   0.00  
 205   21:30    0.0    68   79.7     2    124.7     3.6    999.0   0.00  
 205   21:40    0.0    68   79.8     2    196.1     3.6    999.0   0.00  
 205   21:50    0.0    68   79.4     2    177.4     4.2    999.0   0.00  
 205   22:00    0.0    68   79.4     2    184.0     3.0    999.0   0.00  
 205   22:10    0.0    68   80.0     1     14.6     2.4    999.0   0.00  
 205   22:20    0.0    67   80.5     2    131.3     3.6    999.0   0.00  
 205   22:30    0.0    67   81.4     2    160.7     2.4    999.0   0.00  
 205   22:40    0.0    66   81.6     2    148.4     3.0    999.0   0.00  
 205   22:50    0.0    66   82.4     3    122.5     6.6    999.0   0.00  
 205   23:00    0.0    67   83.1     4    128.1     6.0    999.0   0.00  
 205   23:10    0.0    67   83.3     3    138.1     5.4    999.0   0.00  
 205   23:20    0.0    67   83.6     2    137.1     3.6    999.0   0.00  
 205   23:30    0.0    66   83.9     2    159.1     3.6    999.0   0.00  
 205   23:40    0.0    66   84.3     2    138.5     2.4    999.0   0.00  
 205   23:50    0.0    66   84.5     3    158.5     4.2    999.0   0.00  
 206    0:00    0.0    66   84.6     2    124.9     3.6    999.0   0.00  
 206    0:10    0.0    66   83.9     2    199.0     3.0    999.0   0.00  
 206    0:20    0.0    66   83.2     2    139.1     3.6    999.0   0.00  
 206    0:30    0.0    66   83.6     2    134.3     3.6    999.0   0.00  
 206    0:40    0.0    67   84.6     2    172.2     3.6    999.0   0.00  
 206    0:50    0.0    67   84.9     1    209.9     1.8    999.0   0.00  
 206    1:00    0.0    66   84.4     3    220.5     3.6    999.0   0.00  
 206    1:10    0.0    67   84.2     2    197.5     3.0    999.0   0.00  
 206    1:20    0.0    67   84.0     2    146.5     3.6    999.0   0.00  
 206    1:30    0.0    67   84.7     2    144.5     3.6    999.0   0.00  
 206    1:40    0.0    66   85.3     3    150.6     3.6    999.0   0.00  
 206    1:50    0.0    67   86.0     4    150.3     6.6    999.0   0.00  
 206    2:00    0.0    67   85.7     4    137.5     6.0    999.0   0.00  
 206    2:10    0.0    67   86.2     4    134.9     6.6    999.0   0.00  
 206    2:20    0.0    67   86.7     4    141.0     6.0    999.0   0.00  
 206    2:30    0.0    67   87.2     4    141.2     6.0    999.0   0.00  
 206    2:40    0.0    67   87.8     4    144.7     5.4    999.0   0.00  
 206    2:50    0.0    66   88.3     4    146.3     6.6    999.0   0.00  
 206    3:00    0.0    67   88.6     4    148.5     6.0    999.0   0.00  
 206    3:10    0.0    66   89.0     4    145.1     6.0    999.0   0.00  
 206    3:20    0.0    67   89.2     4    133.4     7.2    999.0   0.00  
 206    3:30    0.0    67   89.5     4    133.9     7.2    999.0   0.00  
 206    3:40    0.0    67   89.7     3    122.1     5.4    999.0   0.00  
 206    3:50    0.0    67   89.8     3    110.7     5.4    999.0   0.00  
 206    4:00    0.0    67   90.0     3     84.9     5.4    999.0   0.00  
 206    4:10    0.0    67   90.1     2    111.4     3.6    999.0   0.00  
 206    4:20    0.0    67   90.2     2     74.8     3.6    999.0   0.00  
 206    4:30    0.0    67   90.4     2    153.8     3.6    999.0   0.00  
 206    4:40    0.0    66   90.4     3    201.6     4.8    999.0   0.00  
 206    4:50    1.0    66   90.5     2    177.5     3.6    999.0   0.00  
 206    5:00    3.0    66   90.9     1    192.0     2.4    999.0   0.00  
 206    5:10    3.0    66   91.0     1    219.3     1.8    999.0   0.00  
 206    5:20    6.0    65   91.0     2    231.7     3.6    999.0   0.00  
 206    5:30   18.0    65   91.0     1    141.6     2.4    999.0   0.00  
 206    5:40   33.0    65   91.2     2    159.4     2.4    999.0   0.00  
 206    5:50   67.0    66   91.1     1    166.3     2.4    999.0   0.00  
 206    6:00   90.0    67   90.5     1    183.8     1.8    999.0   0.00  
 206    6:10  113.0    68   89.9     1    323.9     2.4    999.0   0.00  
 206    6:20  139.0    69   89.3     2     17.4     3.6    999.0   0.00  
 206    6:30  166.0    69   88.5     3     18.3     4.2    999.0   0.00  

Return to Parsons Landing graphs page.


Western Regional Climate Center,wrcc@dri.edu